GEC474 MKJS-KPIE
Flight info
| Callsign | GEC474 |
|---|---|
| Flight time | 1h 42m |
| Altitude | 34000 |
| Route | URSUS DCT FERAL BLFRG3 |
| Aircraft | MD11/H-SDE1E2E3FGHIJ2J3J4J5M1RWXY/LB1D1 |
Departure
| Time | 2026-04-25 20:54 |
|---|---|
| Airport | Sangster International Airport (MKJS) |
Arrival
| Time | 2026-04-25 22:36 |
|---|---|
| Airport | St. Petersburg Clearwater International Airport (KPIE) |
| Time | Latitude | Longitude | Altitude | Speed | Heading |
|---|---|---|---|---|---|
| 2026-04-25 20:16 | 18.49725 | -77.92199 | 18 ft | 0 kts | 155° |
| 2026-04-25 20:46 | 18.49730 | -77.92201 | 18 ft | 4 kts | 154° |
| 2026-04-25 20:46 | 18.49754 | -77.92214 | 19 ft | 4 kts | 150° |
| 2026-04-25 20:46 | 18.49775 | -77.92225 | 21 ft | 4 kts | 181° |
| 2026-04-25 20:47 | 18.49795 | -77.92223 | 22 ft | 4 kts | 209° |
| 2026-04-25 20:47 | 18.49809 | -77.92209 | 22 ft | 4 kts | 252° |
| 2026-04-25 20:47 | 18.49815 | -77.92191 | 18 ft | 0 kts | 245° |
| 2026-04-25 20:52 | 18.49784 | -77.92261 | 19 ft | 12 kts | 245° |
| 2026-04-25 20:52 | 18.49750 | -77.92363 | 18 ft | 17 kts | 270° |
| 2026-04-25 20:53 | 18.49834 | -77.92441 | 18 ft | 16 kts | 333° |
| 2026-04-25 20:53 | 18.49871 | -77.92442 | 18 ft | 4 kts | 24° |
| 2026-04-25 20:53 | 18.49887 | -77.92425 | 19 ft | 5 kts | 51° |
| 2026-04-25 20:53 | 18.49934 | -77.92332 | 21 ft | 38 kts | 64° |
| 2026-04-25 20:54 | 18.50163 | -77.91802 | 21 ft | 119 kts | 65° |
| 2026-04-25 20:54 | 18.50602 | -77.90795 | 33 ft | 179 kts | 64° |
| 2026-04-25 20:54 | 18.51097 | -77.89559 | 671 ft | 183 kts | 66° |
| 2026-04-25 20:54 | 18.51645 | -77.88324 | 1425 ft | 192 kts | 60° |
| 2026-04-25 20:55 | 18.52370 | -77.87091 | 2122 ft | 203 kts | 53° |
| 2026-04-25 20:55 | 18.53313 | -77.85960 | 2867 ft | 209 kts | 40° |
| 2026-04-25 20:55 | 18.54534 | -77.85124 | 3651 ft | 211 kts | 22° |
| 2026-04-25 20:55 | 18.55948 | -77.84769 | 4450 ft | 210 kts | 0° |
| 2026-04-25 20:56 | 18.57406 | -77.84763 | 5116 ft | 218 kts | 5° |
| 2026-04-25 20:56 | 18.58987 | -77.84389 | 5292 ft | 246 kts | 14° |
| 2026-04-25 20:56 | 18.60701 | -77.83867 | 5417 ft | 266 kts | 15° |
| 2026-04-25 20:56 | 18.62536 | -77.83324 | 5550 ft | 281 kts | 14° |
| 2026-04-25 20:57 | 18.64432 | -77.82790 | 5904 ft | 282 kts | 13° |
| 2026-04-25 20:57 | 18.66345 | -77.82273 | 6322 ft | 286 kts | 12° |
| 2026-04-25 20:57 | 18.68284 | -77.81767 | 7099 ft | 289 kts | 12° |
| 2026-04-25 20:57 | 18.70246 | -77.81264 | 7966 ft | 292 kts | 12° |
| 2026-04-25 20:58 | 18.72242 | -77.80761 | 8751 ft | 301 kts | 11° |
| 2026-04-25 20:58 | 18.74280 | -77.80252 | 9229 ft | 301 kts | 11° |
| 2026-04-25 20:58 | 18.76326 | -77.79744 | 10071 ft | 304 kts | 11° |
| 2026-04-25 20:58 | 18.78470 | -77.79216 | 10310 ft | 331 kts | 11° |
| 2026-04-25 20:59 | 18.80811 | -77.78642 | 10444 ft | 359 kts | 11° |
| 2026-04-25 20:59 | 18.83308 | -77.78029 | 10902 ft | 373 kts | 11° |
| 2026-04-25 20:59 | 18.85847 | -77.77402 | 11708 ft | 376 kts | 11° |
| 2026-04-25 20:59 | 18.88408 | -77.76770 | 12519 ft | 380 kts | 11° |
| 2026-04-25 21:00 | 18.90994 | -77.76132 | 13300 ft | 383 kts | 11° |
| 2026-04-25 21:00 | 18.92718 | -77.75707 | 13805 ft | 386 kts | 11° |
| 2026-04-25 21:00 | 18.98905 | -77.74183 | 15276 ft | 395 kts | 11° |
| 2026-04-25 21:01 | 19.01596 | -77.73520 | 15885 ft | 399 kts | 10° |
| 2026-04-25 21:01 | 19.04316 | -77.72850 | 16481 ft | 403 kts | 10° |
| 2026-04-25 21:01 | 19.07034 | -77.72181 | 17063 ft | 408 kts | 10° |
| 2026-04-25 21:01 | 19.09809 | -77.71497 | 17648 ft | 411 kts | 10° |
| 2026-04-25 21:02 | 19.12614 | -77.70813 | 18192 ft | 415 kts | 8° |
| 2026-04-25 21:02 | 19.15469 | -77.70474 | 18657 ft | 412 kts | 354° |
| 2026-04-25 21:02 | 19.18297 | -77.70833 | 19137 ft | 410 kts | 345° |
| 2026-04-25 21:02 | 19.21066 | -77.71550 | 19624 ft | 410 kts | 341° |
| 2026-04-25 21:03 | 19.23818 | -77.72384 | 20106 ft | 412 kts | 340° |
| 2026-04-25 21:03 | 19.26583 | -77.73235 | 20603 ft | 415 kts | 340° |
| 2026-04-25 21:03 | 19.29367 | -77.74069 | 21096 ft | 417 kts | 340° |
| 2026-04-25 21:03 | 19.32176 | -77.74883 | 21605 ft | 420 kts | 341° |
| 2026-04-25 21:04 | 19.35012 | -77.75684 | 22102 ft | 423 kts | 341° |
| 2026-04-25 21:04 | 19.37868 | -77.76479 | 22624 ft | 426 kts | 341° |
| 2026-04-25 21:04 | 19.40743 | -77.77272 | 23151 ft | 429 kts | 341° |
| 2026-04-25 21:04 | 19.43636 | -77.78069 | 23640 ft | 431 kts | 341° |
| 2026-04-25 21:05 | 19.46553 | -77.78871 | 24084 ft | 434 kts | 340° |
| 2026-04-25 21:05 | 19.49483 | -77.79677 | 24546 ft | 436 kts | 340° |
| 2026-04-25 21:05 | 19.52432 | -77.80489 | 25000 ft | 439 kts | 340° |
| 2026-04-25 21:05 | 19.55403 | -77.81308 | 25436 ft | 442 kts | 340° |
| 2026-04-25 21:06 | 19.58387 | -77.82131 | 25916 ft | 445 kts | 340° |
| 2026-04-25 21:06 | 19.61391 | -77.82960 | 26369 ft | 448 kts | 340° |
| 2026-04-25 21:06 | 19.64375 | -77.83783 | 26806 ft | 450 kts | 340° |
| 2026-04-25 21:06 | 19.66426 | -77.84350 | 27106 ft | 452 kts | 340° |
| 2026-04-25 21:07 | 19.70517 | -77.85480 | 27688 ft | 456 kts | 340° |
| 2026-04-25 21:07 | 19.73561 | -77.86321 | 28169 ft | 458 kts | 339° |
| 2026-04-25 21:07 | 19.76646 | -77.87173 | 28654 ft | 460 kts | 339° |
| 2026-04-25 21:07 | 19.79751 | -77.88032 | 29085 ft | 462 kts | 339° |
| 2026-04-25 21:08 | 19.82870 | -77.88895 | 29506 ft | 465 kts | 339° |
| 2026-04-25 21:08 | 19.86010 | -77.89765 | 29891 ft | 467 kts | 339° |
| 2026-04-25 21:08 | 19.89167 | -77.90639 | 30218 ft | 470 kts | 339° |
| 2026-04-25 21:08 | 19.92336 | -77.91517 | 30518 ft | 472 kts | 339° |
| 2026-04-25 21:09 | 19.98714 | -77.93284 | 31159 ft | 474 kts | 339° |
| 2026-04-25 21:09 | 20.01905 | -77.94170 | 31535 ft | 473 kts | 338° |
| 2026-04-25 21:09 | 20.05089 | -77.95053 | 31900 ft | 472 kts | 338° |
| 2026-04-25 21:10 | 20.08269 | -77.95935 | 32359 ft | 470 kts | 338° |
| 2026-04-25 21:10 | 20.11425 | -77.96810 | 32761 ft | 468 kts | 338° |
| 2026-04-25 21:10 | 20.14569 | -77.97683 | 33141 ft | 466 kts | 338° |
| 2026-04-25 21:10 | 20.17658 | -77.98541 | 33521 ft | 464 kts | 338° |
| 2026-04-25 21:11 | 20.20779 | -77.99409 | 33878 ft | 463 kts | 338° |
| 2026-04-25 21:11 | 20.23908 | -78.00282 | 33986 ft | 466 kts | 337° |
| 2026-04-25 21:11 | 20.30199 | -78.02037 | 34015 ft | 468 kts | 338° |
| 2026-04-25 21:12 | 20.36504 | -78.03793 | 34012 ft | 468 kts | 338° |
| 2026-04-25 21:12 | 20.41785 | -78.05264 | 34018 ft | 468 kts | 337° |
| 2026-04-25 21:13 | 20.49102 | -78.07304 | 34011 ft | 468 kts | 337° |
| 2026-04-25 21:13 | 20.55396 | -78.09062 | 34010 ft | 468 kts | 337° |
| 2026-04-25 21:14 | 20.61687 | -78.10821 | 34016 ft | 468 kts | 337° |
| 2026-04-25 21:14 | 20.67982 | -78.12582 | 34015 ft | 467 kts | 337° |
| 2026-04-25 21:15 | 20.74274 | -78.14343 | 34034 ft | 467 kts | 336° |
| 2026-04-25 21:15 | 20.80555 | -78.16104 | 34015 ft | 466 kts | 336° |
| 2026-04-25 21:16 | 20.86824 | -78.17867 | 34010 ft | 466 kts | 336° |
| 2026-04-25 21:16 | 20.93105 | -78.19632 | 34011 ft | 466 kts | 336° |
| 2026-04-25 21:17 | 20.99376 | -78.21394 | 34013 ft | 466 kts | 336° |
| 2026-04-25 21:17 | 21.05647 | -78.23157 | 34013 ft | 466 kts | 336° |
| 2026-04-25 21:18 | 21.11919 | -78.24922 | 34012 ft | 466 kts | 336° |
| 2026-04-25 21:18 | 21.18191 | -78.26689 | 34011 ft | 466 kts | 336° |
| 2026-04-25 21:19 | 21.24461 | -78.28457 | 34012 ft | 466 kts | 336° |
| 2026-04-25 21:19 | 21.30693 | -78.30216 | 34011 ft | 466 kts | 336° |
| 2026-04-25 21:20 | 21.35950 | -78.31700 | 34009 ft | 466 kts | 336° |
| 2026-04-25 21:20 | 21.43227 | -78.33755 | 34021 ft | 464 kts | 336° |
| 2026-04-25 21:21 | 21.49476 | -78.35523 | 34013 ft | 464 kts | 336° |
| 2026-04-25 21:21 | 21.55716 | -78.37291 | 34010 ft | 464 kts | 336° |
| 2026-04-25 21:22 | 21.61957 | -78.39063 | 34010 ft | 464 kts | 336° |
| 2026-04-25 21:22 | 21.68200 | -78.40839 | 34015 ft | 464 kts | 336° |
| 2026-04-25 21:23 | 21.74442 | -78.42612 | 34027 ft | 463 kts | 336° |
| 2026-04-25 21:23 | 21.80661 | -78.44378 | 34018 ft | 462 kts | 335° |
| 2026-04-25 21:24 | 21.86873 | -78.46146 | 34015 ft | 462 kts | 335° |
| 2026-04-25 21:24 | 21.93087 | -78.47916 | 34023 ft | 462 kts | 335° |
| 2026-04-25 21:25 | 21.99298 | -78.49686 | 34020 ft | 462 kts | 335° |
| 2026-04-25 21:25 | 22.05473 | -78.51447 | 34056 ft | 462 kts | 336° |
| 2026-04-25 21:26 | 22.11684 | -78.53221 | 34029 ft | 462 kts | 336° |
| 2026-04-25 21:26 | 22.17898 | -78.54996 | 34025 ft | 462 kts | 336° |
| 2026-04-25 21:27 | 22.24109 | -78.56773 | 34029 ft | 462 kts | 336° |
| 2026-04-25 21:27 | 22.30319 | -78.58550 | 34028 ft | 462 kts | 336° |
| 2026-04-25 21:28 | 22.36529 | -78.60330 | 34029 ft | 462 kts | 336° |
| 2026-04-25 21:28 | 22.42740 | -78.62114 | 34032 ft | 462 kts | 336° |
| 2026-04-25 21:29 | 22.48956 | -78.63903 | 34027 ft | 462 kts | 336° |
| 2026-04-25 21:29 | 22.55181 | -78.65693 | 33976 ft | 462 kts | 336° |
| 2026-04-25 21:30 | 22.61387 | -78.67477 | 33918 ft | 461 kts | 336° |
| 2026-04-25 21:30 | 22.66548 | -78.68963 | 33911 ft | 461 kts | 336° |
| 2026-04-25 21:31 | 22.73795 | -78.71050 | 33922 ft | 459 kts | 336° |
| 2026-04-25 21:31 | 22.79956 | -78.72826 | 33917 ft | 458 kts | 336° |
| 2026-04-25 21:32 | 22.86085 | -78.74597 | 33919 ft | 458 kts | 336° |
| 2026-04-25 21:32 | 22.92249 | -78.76379 | 33921 ft | 458 kts | 336° |
| 2026-04-25 21:33 | 22.98407 | -78.78160 | 33919 ft | 458 kts | 336° |
| 2026-04-25 21:33 | 23.04565 | -78.79943 | 33941 ft | 458 kts | 337° |
| 2026-04-25 21:34 | 23.10699 | -78.81719 | 33922 ft | 456 kts | 336° |
| 2026-04-25 21:34 | 23.16832 | -78.83498 | 33922 ft | 456 kts | 336° |
| 2026-04-25 21:35 | 23.22959 | -78.85280 | 33922 ft | 456 kts | 336° |
| 2026-04-25 21:35 | 23.29086 | -78.87065 | 33922 ft | 456 kts | 336° |
| 2026-04-25 21:36 | 23.35215 | -78.88850 | 33924 ft | 456 kts | 336° |
| 2026-04-25 21:36 | 23.41345 | -78.90636 | 33933 ft | 456 kts | 338° |
| 2026-04-25 21:37 | 23.45450 | -78.91832 | 33930 ft | 457 kts | 338° |
| 2026-04-25 21:37 | 23.53622 | -78.94215 | 33924 ft | 457 kts | 338° |
| 2026-04-25 21:38 | 23.59763 | -78.96008 | 33926 ft | 457 kts | 338° |
| 2026-04-25 21:38 | 23.65902 | -78.97802 | 33930 ft | 457 kts | 338° |
| 2026-04-25 21:39 | 23.71011 | -78.99299 | 33928 ft | 460 kts | 339° |
| 2026-04-25 21:39 | 23.77209 | -79.01115 | 33928 ft | 461 kts | 339° |
| 2026-04-25 21:40 | 23.83409 | -79.02930 | 33931 ft | 461 kts | 339° |
| 2026-04-25 21:40 | 23.89614 | -79.04750 | 33930 ft | 462 kts | 339° |
| 2026-04-25 21:41 | 23.95814 | -79.06570 | 33930 ft | 460 kts | 339° |
| 2026-04-25 21:41 | 24.01897 | -79.08634 | 33940 ft | 455 kts | 332° |
| 2026-04-25 21:42 | 24.07096 | -79.12419 | 33933 ft | 448 kts | 314° |
| 2026-04-25 21:42 | 24.11476 | -79.17263 | 33931 ft | 447 kts | 311° |
| 2026-04-25 21:43 | 24.15817 | -79.22140 | 33933 ft | 448 kts | 312° |
| 2026-04-25 21:43 | 24.20260 | -79.26933 | 33933 ft | 448 kts | 313° |
| 2026-04-25 21:44 | 24.24740 | -79.31685 | 33930 ft | 448 kts | 313° |
| 2026-04-25 21:45 | 24.31440 | -79.38774 | 33933 ft | 448 kts | 313° |
| 2026-04-25 21:45 | 24.35980 | -79.43527 | 33926 ft | 448 kts | 313° |
| 2026-04-25 21:46 | 24.40407 | -79.48273 | 33935 ft | 448 kts | 313° |
| 2026-04-25 21:46 | 24.45024 | -79.52581 | 33935 ft | 453 kts | 325° |
| 2026-04-25 21:47 | 24.50869 | -79.55172 | 33934 ft | 464 kts | 343° |
| 2026-04-25 21:47 | 24.57225 | -79.56527 | 33933 ft | 465 kts | 342° |
| 2026-04-25 21:48 | 24.63427 | -79.58422 | 33936 ft | 461 kts | 337° |
| 2026-04-25 21:48 | 24.69470 | -79.60767 | 33941 ft | 460 kts | 336° |
| 2026-04-25 21:49 | 24.75472 | -79.63231 | 33936 ft | 460 kts | 336° |
| 2026-04-25 21:49 | 24.81469 | -79.65692 | 33936 ft | 460 kts | 336° |
| 2026-04-25 21:50 | 24.87469 | -79.68141 | 33936 ft | 460 kts | 336° |
| 2026-04-25 21:50 | 24.93475 | -79.70590 | 33938 ft | 460 kts | 336° |
| 2026-04-25 21:51 | 24.99475 | -79.73038 | 33940 ft | 459 kts | 336° |
| 2026-04-25 21:51 | 25.05449 | -79.75478 | 33936 ft | 458 kts | 336° |
| 2026-04-25 21:52 | 25.11425 | -79.77921 | 33936 ft | 458 kts | 336° |
| 2026-04-25 21:52 | 25.17399 | -79.80368 | 33934 ft | 458 kts | 336° |
| 2026-04-25 21:53 | 25.23387 | -79.82827 | 33936 ft | 459 kts | 336° |
| 2026-04-25 21:53 | 25.29377 | -79.85291 | 33958 ft | 459 kts | 337° |
| 2026-04-25 21:54 | 25.35359 | -79.87749 | 33939 ft | 458 kts | 337° |
| 2026-04-25 21:54 | 25.41333 | -79.90204 | 33938 ft | 458 kts | 337° |
| 2026-04-25 21:55 | 25.47307 | -79.92663 | 33941 ft | 458 kts | 337° |
| 2026-04-25 21:55 | 25.53242 | -79.95108 | 33939 ft | 458 kts | 337° |
| 2026-04-25 21:56 | 25.59218 | -79.97573 | 33938 ft | 458 kts | 337° |
| 2026-04-25 21:56 | 25.65200 | -80.00043 | 33939 ft | 460 kts | 338° |
| 2026-04-25 21:57 | 25.71202 | -80.02524 | 33937 ft | 460 kts | 338° |
| 2026-04-25 21:57 | 25.77201 | -80.05005 | 33936 ft | 460 kts | 338° |
| 2026-04-25 21:58 | 25.83203 | -80.07491 | 33936 ft | 460 kts | 338° |
| 2026-04-25 21:58 | 25.89199 | -80.09977 | 33942 ft | 460 kts | 338° |
| 2026-04-25 21:59 | 25.95202 | -80.12470 | 33947 ft | 461 kts | 338° |
| 2026-04-25 21:59 | 26.01207 | -80.14970 | 33943 ft | 461 kts | 338° |
| 2026-04-25 22:00 | 26.10149 | -80.18885 | 33941 ft | 458 kts | 332° |
| 2026-04-25 22:00 | 26.15397 | -80.22816 | 33943 ft | 455 kts | 316° |
| 2026-04-25 22:01 | 26.19329 | -80.28251 | 33945 ft | 456 kts | 301° |
| 2026-04-25 22:01 | 26.21857 | -80.33462 | 33929 ft | 457 kts | 297° |
| 2026-04-25 22:02 | 26.25188 | -80.40805 | 33938 ft | 458 kts | 298° |
| 2026-04-25 22:02 | 26.28144 | -80.47120 | 33933 ft | 460 kts | 298° |
| 2026-04-25 22:03 | 26.31143 | -80.53418 | 33934 ft | 460 kts | 298° |
| 2026-04-25 22:03 | 26.34141 | -80.59700 | 33936 ft | 457 kts | 298° |
| 2026-04-25 22:04 | 26.37125 | -80.65964 | 33927 ft | 457 kts | 298° |
| 2026-04-25 22:04 | 26.40105 | -80.72232 | 33927 ft | 457 kts | 298° |
| 2026-04-25 22:05 | 26.43081 | -80.78503 | 33922 ft | 457 kts | 298° |
| 2026-04-25 22:05 | 26.46054 | -80.84776 | 33922 ft | 457 kts | 298° |
| 2026-04-25 22:06 | 26.49004 | -80.91009 | 33903 ft | 457 kts | 298° |
| 2026-04-25 22:06 | 26.51974 | -80.97293 | 33916 ft | 458 kts | 298° |
| 2026-04-25 22:07 | 26.54461 | -81.02562 | 33916 ft | 458 kts | 298° |
| 2026-04-25 22:07 | 26.57909 | -81.09879 | 33911 ft | 458 kts | 298° |
| 2026-04-25 22:08 | 26.60856 | -81.16182 | 33764 ft | 456 kts | 298° |
| 2026-04-25 22:08 | 26.62381 | -81.19271 | 33278 ft | 453 kts | 303° |
| 2026-04-25 22:08 | 26.64159 | -81.22181 | 32673 ft | 453 kts | 307° |
| 2026-04-25 22:09 | 26.66094 | -81.24969 | 32134 ft | 455 kts | 309° |
| 2026-04-25 22:09 | 26.68097 | -81.27720 | 31583 ft | 457 kts | 310° |
| 2026-04-25 22:09 | 26.70124 | -81.30478 | 31005 ft | 459 kts | 310° |
| 2026-04-25 22:09 | 26.72145 | -81.33249 | 30442 ft | 461 kts | 310° |
| 2026-04-25 22:10 | 26.74166 | -81.36045 | 29823 ft | 464 kts | 310° |
| 2026-04-25 22:10 | 26.76185 | -81.38862 | 29096 ft | 465 kts | 309° |
| 2026-04-25 22:10 | 26.78206 | -81.41697 | 28421 ft | 466 kts | 309° |
| 2026-04-25 22:10 | 26.80225 | -81.44537 | 27763 ft | 466 kts | 309° |
| 2026-04-25 22:11 | 26.82228 | -81.47359 | 27118 ft | 461 kts | 309° |
| 2026-04-25 22:11 | 26.84209 | -81.50153 | 26482 ft | 455 kts | 309° |
| 2026-04-25 22:11 | 26.86164 | -81.52911 | 25858 ft | 449 kts | 309° |
| 2026-04-25 22:11 | 26.88098 | -81.55639 | 25239 ft | 444 kts | 308° |
| 2026-04-25 22:12 | 26.90008 | -81.58335 | 24630 ft | 439 kts | 308° |
| 2026-04-25 22:12 | 26.91868 | -81.60962 | 24033 ft | 433 kts | 308° |
| 2026-04-25 22:12 | 26.93728 | -81.63590 | 23434 ft | 428 kts | 308° |
| 2026-04-25 22:12 | 26.94978 | -81.65357 | 22961 ft | 425 kts | 308° |
| 2026-04-25 22:13 | 26.97389 | -81.68767 | 22136 ft | 419 kts | 308° |
| 2026-04-25 22:13 | 26.99185 | -81.71311 | 21547 ft | 414 kts | 308° |
| 2026-04-25 22:13 | 27.00958 | -81.73822 | 20967 ft | 408 kts | 308° |
| 2026-04-25 22:13 | 27.02709 | -81.76303 | 20406 ft | 403 kts | 308° |
| 2026-04-25 22:14 | 27.04438 | -81.78755 | 19852 ft | 398 kts | 308° |
| 2026-04-25 22:14 | 27.06145 | -81.81177 | 19302 ft | 393 kts | 308° |
| 2026-04-25 22:14 | 27.07977 | -81.83422 | 18762 ft | 389 kts | 316° |
| 2026-04-25 22:14 | 27.10026 | -81.85383 | 18185 ft | 385 kts | 321° |
| 2026-04-25 22:15 | 27.12142 | -81.87199 | 17551 ft | 381 kts | 322° |
| 2026-04-25 22:15 | 27.14263 | -81.88960 | 16976 ft | 377 kts | 323° |
| 2026-04-25 22:15 | 27.16366 | -81.90703 | 16417 ft | 374 kts | 323° |
| 2026-04-25 22:16 | 27.20489 | -81.94157 | 15335 ft | 367 kts | 322° |
| 2026-04-25 22:16 | 27.22522 | -81.95876 | 14797 ft | 364 kts | 322° |
| 2026-04-25 22:16 | 27.24531 | -81.97581 | 14294 ft | 360 kts | 322° |
| 2026-04-25 22:16 | 27.26523 | -81.99275 | 13779 ft | 358 kts | 322° |
| 2026-04-25 22:17 | 27.28498 | -82.00956 | 13216 ft | 356 kts | 322° |
| 2026-04-25 22:17 | 27.30442 | -82.02613 | 12698 ft | 356 kts | 322° |
| 2026-04-25 22:17 | 27.32414 | -82.04295 | 12243 ft | 355 kts | 322° |
| 2026-04-25 22:17 | 27.34383 | -82.05975 | 11872 ft | 355 kts | 322° |
| 2026-04-25 22:18 | 27.36347 | -82.07663 | 11623 ft | 352 kts | 321° |
| 2026-04-25 22:18 | 27.38202 | -82.09338 | 11500 ft | 333 kts | 320° |
| 2026-04-25 22:18 | 27.39950 | -82.10961 | 11374 ft | 317 kts | 320° |
| 2026-04-25 22:18 | 27.41609 | -82.12515 | 11261 ft | 303 kts | 320° |
| 2026-04-25 22:19 | 27.43191 | -82.13998 | 11103 ft | 290 kts | 319° |
| 2026-04-25 22:19 | 27.44710 | -82.15473 | 10809 ft | 287 kts | 317° |
| 2026-04-25 22:19 | 27.46156 | -82.17005 | 10438 ft | 284 kts | 315° |
| 2026-04-25 22:19 | 27.47575 | -82.18554 | 10095 ft | 283 kts | 315° |
| 2026-04-25 22:20 | 27.48979 | -82.20094 | 9736 ft | 280 kts | 315° |
| 2026-04-25 22:20 | 27.50370 | -82.21618 | 9361 ft | 278 kts | 316° |
| 2026-04-25 22:20 | 27.51860 | -82.23002 | 8966 ft | 278 kts | 322° |
| 2026-04-25 22:20 | 27.53420 | -82.24282 | 8593 ft | 277 kts | 323° |
| 2026-04-25 22:21 | 27.54986 | -82.25547 | 8214 ft | 276 kts | 323° |
| 2026-04-25 22:21 | 27.56540 | -82.26811 | 7844 ft | 275 kts | 323° |
| 2026-04-25 22:21 | 27.58087 | -82.28081 | 7483 ft | 275 kts | 323° |
| 2026-04-25 22:21 | 27.59633 | -82.29358 | 7145 ft | 274 kts | 323° |
| 2026-04-25 22:22 | 27.61160 | -82.30626 | 7036 ft | 274 kts | 322° |
| 2026-04-25 22:22 | 27.62694 | -82.31904 | 7013 ft | 274 kts | 323° |
| 2026-04-25 22:22 | 27.64208 | -82.33169 | 7008 ft | 274 kts | 322° |
| 2026-04-25 22:22 | 27.65742 | -82.34451 | 7004 ft | 275 kts | 322° |
| 2026-04-25 22:23 | 27.67276 | -82.35737 | 7000 ft | 275 kts | 323° |
| 2026-04-25 22:23 | 27.68811 | -82.37023 | 7000 ft | 274 kts | 322° |
| 2026-04-25 22:23 | 27.70342 | -82.38307 | 6998 ft | 274 kts | 322° |
| 2026-04-25 22:23 | 27.71874 | -82.39593 | 6998 ft | 275 kts | 322° |
| 2026-04-25 22:24 | 27.73410 | -82.40884 | 6992 ft | 275 kts | 322° |
| 2026-04-25 22:24 | 27.74946 | -82.42174 | 6994 ft | 276 kts | 322° |
| 2026-04-25 22:24 | 27.76486 | -82.43470 | 6992 ft | 276 kts | 322° |
| 2026-04-25 22:24 | 27.78028 | -82.44765 | 6991 ft | 276 kts | 322° |
| 2026-04-25 22:25 | 27.79568 | -82.46057 | 6990 ft | 276 kts | 322° |
| 2026-04-25 22:25 | 27.81201 | -82.47180 | 6976 ft | 277 kts | 339° |
| 2026-04-25 22:25 | 27.83076 | -82.47659 | 6993 ft | 278 kts | 351° |
| 2026-04-25 22:25 | 27.84994 | -82.47930 | 6986 ft | 277 kts | 353° |
| 2026-04-25 22:26 | 27.86913 | -82.48176 | 6988 ft | 278 kts | 352° |
| 2026-04-25 22:26 | 27.88841 | -82.48414 | 6987 ft | 278 kts | 352° |
| 2026-04-25 22:26 | 27.90763 | -82.48650 | 6987 ft | 278 kts | 353° |
| 2026-04-25 22:26 | 27.92038 | -82.48804 | 6987 ft | 278 kts | 353° |
| 2026-04-25 22:27 | 27.93962 | -82.49034 | 6989 ft | 278 kts | 353° |
| 2026-04-25 22:27 | 27.95874 | -82.49269 | 6678 ft | 277 kts | 352° |
| 2026-04-25 22:27 | 27.98413 | -82.49578 | 6143 ft | 277 kts | 353° |
| 2026-04-25 22:27 | 28.00319 | -82.49817 | 5754 ft | 275 kts | 353° |
| 2026-04-25 22:28 | 28.02193 | -82.50051 | 5588 ft | 266 kts | 352° |
| 2026-04-25 22:28 | 28.03999 | -82.50274 | 5393 ft | 258 kts | 352° |
| 2026-04-25 22:28 | 28.05200 | -82.50422 | 5167 ft | 256 kts | 353° |
| 2026-04-25 22:28 | 28.06972 | -82.50639 | 4819 ft | 256 kts | 353° |
| 2026-04-25 22:29 | 28.08791 | -82.50880 | 4676 ft | 272 kts | 351° |
| 2026-04-25 22:29 | 28.10751 | -82.51166 | 4532 ft | 291 kts | 351° |
| 2026-04-25 22:29 | 28.12717 | -82.51426 | 4421 ft | 277 kts | 350° |
| 2026-04-25 22:30 | 28.15678 | -82.53574 | 4122 ft | 248 kts | 295° |
| 2026-04-25 22:30 | 28.16082 | -82.55357 | 3861 ft | 234 kts | 270° |
| 2026-04-25 22:30 | 28.16026 | -82.57194 | 3504 ft | 233 kts | 264° |
| 2026-04-25 22:30 | 28.15961 | -82.58429 | 3270 ft | 232 kts | 264° |
| 2026-04-25 22:31 | 28.15830 | -82.60823 | 3040 ft | 231 kts | 265° |
| 2026-04-25 22:31 | 28.15665 | -82.62626 | 3083 ft | 229 kts | 253° |
| 2026-04-25 22:31 | 28.14856 | -82.64134 | 3129 ft | 226 kts | 221° |
| 2026-04-25 22:31 | 28.13618 | -82.65204 | 2978 ft | 221 kts | 223° |
| 2026-04-25 22:32 | 28.12481 | -82.66430 | 2804 ft | 227 kts | 223° |
| 2026-04-25 22:32 | 28.11367 | -82.67674 | 2571 ft | 224 kts | 225° |
| 2026-04-25 22:32 | 28.10266 | -82.68884 | 2453 ft | 216 kts | 225° |
| 2026-04-25 22:32 | 28.09214 | -82.70019 | 2709 ft | 207 kts | 222° |
| 2026-04-25 22:33 | 28.08048 | -82.70950 | 2946 ft | 205 kts | 208° |
| 2026-04-25 22:33 | 28.06695 | -82.71465 | 2783 ft | 209 kts | 184° |
| 2026-04-25 22:33 | 28.05256 | -82.71314 | 2534 ft | 209 kts | 172° |
| 2026-04-25 22:33 | 28.03825 | -82.71050 | 2240 ft | 204 kts | 173° |
| 2026-04-25 22:34 | 28.02478 | -82.70808 | 1846 ft | 190 kts | 174° |
| 2026-04-25 22:34 | 28.01225 | -82.70560 | 1463 ft | 176 kts | 173° |
| 2026-04-25 22:34 | 28.00035 | -82.70384 | 1322 ft | 174 kts | 179° |
| 2026-04-25 22:34 | 27.98847 | -82.70216 | 1107 ft | 172 kts | 175° |
| 2026-04-25 22:35 | 27.97657 | -82.69989 | 976 ft | 176 kts | 171° |
| 2026-04-25 22:35 | 27.96471 | -82.69718 | 900 ft | 177 kts | 176° |
| 2026-04-25 22:35 | 27.95218 | -82.69557 | 667 ft | 181 kts | 177° |
| 2026-04-25 22:35 | 27.93998 | -82.69346 | 407 ft | 169 kts | 177° |
| 2026-04-25 22:36 | 27.92879 | -82.69163 | 105 ft | 164 kts | 175° |
| 2026-04-25 22:36 | 27.91815 | -82.68986 | 27 ft | 137 kts | 171° |
| 2026-04-25 22:36 | 27.91024 | -82.68840 | 30 ft | 78 kts | 170° |
| 2026-04-25 22:36 | 27.90664 | -82.68781 | 32 ft | 37 kts | 172° |
| 2026-04-25 22:37 | 27.90478 | -82.68752 | 30 ft | 15 kts | 173° |
| 2026-04-25 22:37 | 27.90437 | -82.68752 | 29 ft | 14 kts | 173° |
| 2026-04-25 22:37 | 27.90337 | -82.68746 | 29 ft | 9 kts | 203° |
| 2026-04-25 22:37 | 27.90303 | -82.68805 | 29 ft | 9 kts | 255° |
| 2026-04-25 22:38 | 27.90301 | -82.68826 | 28 ft | 0 kts | 267° |
| 2026-04-25 22:38 | 27.90302 | -82.68832 | 28 ft | 3 kts | 275° |
| 2026-04-25 22:38 | 27.90336 | -82.68876 | 28 ft | 12 kts | 331° |
| 2026-04-25 22:38 | 27.90432 | -82.68902 | 29 ft | 14 kts | 349° |
| 2026-04-25 22:39 | 27.90516 | -82.68914 | 29 ft | 11 kts | 353° |
| 2026-04-25 22:39 | 27.90575 | -82.68931 | 29 ft | 6 kts | 323° |
| 2026-04-25 22:39 | 27.90583 | -82.68967 | 28 ft | 5 kts | 269° |
| 2026-04-25 22:39 | 27.90580 | -82.68992 | 28 ft | 0 kts | 260° |